Grayling, MI

10:59 AM EDT on April 28, 2015 (GMT -0400)
MesoWest | | Change Station
CLOSE
Current Station
Personal Weather Station
Location: Grayling, MI
Elevation: 1291 ft
Nearby Weather Stations

Elev 1291 ft 44.61 °N, 84.71 °W | Updated 44 minutes ago

Overcast
Overcast
50 °F
Feels Like 50 °F
N
3
Wind Variable Wind from NE
Gusts 9.0 mph

Today
High -- | Low -- °F
--% Chance of Precip.
Yesterday
High -- | Low -- °F
Precip. -- in
6:33 AM 8:39 PM
Waxing Gibbous, 74% visible
Pressure 30.14 in
Visibility 10.0 miles
Clouds Overcast 3400 ft
Dew Point 33 °F
Humidity 53%
Rainfall in
Snow Depth Not available.
UV 2 out of 12
Pollen 10.10 out of 12
Air Quality Not available.
Flu Activity Regional
METAR KGOV 281455Z AUTO 00000KT 10SM OVC034 10/01 A3014 RMK AO2 T01000005

More Conditions Fewer Conditions

Pressure 30.14 in
Visibility 10.0 miles
Clouds Overcast 3400 ft
Dew Point 33 °F
Humidity 53%
Rainfall in
Snow Depth Not available.
UV 2 out of 12
Pollen 10.10 out of 12
Air Quality Not available.
Flu Activity Regional
METAR KGOV 281455Z AUTO 00000KT 10SM OVC034 10/01 A3014 RMK AO2 T01000005

More Conditions Fewer Conditions

Nowcast | as of 9:00 am EDT on April 28, 2015

At 10 am...partly cloudy. Temperature 46. Light winds. At 12 PM...mostly cloudy. Temperature 54. Northwest winds 5 mph. At 2 PM...mostly cloudy. Temperature 59. Northwest winds 6 mph. At 4 PM...mostly cloudy. Temperature 60. Northwest winds 6 mph.

×

10-Day Weather Forecast

Almanac

Astronomy

Apr. 28, 2015 Rise Set
Actual Time
Civil Twilight
Nautical Twilight
Astronomical Twilight
Moon
Length of Visible Light
Length of Day
Tomorrow will be .
, % of the Moon is Illuminated

Today's Extremes

State Highs State Lows

Community

WunderPhotos

Upload Photos

1,817,654 photos uploaded!

WunderBlogs® & News

Nearby

Air Quality

  Air Quality AQ Index Pollutant
Not available.

Snow Depth

Station Depth Elevation

Earthquake Activity

City Distance Mag. Time & Date
Minimum magnitude displayed is 2.5.

Coastal Water Temperatures

Place Temperature

Stations

Nearby Weather Stations

Station Location Temp. Windchill Dew Point Humidity Wind Precip. Elev Updated Type